Exe Otter — J8B4923 — position and weather

sailwx.info

Track history (hours):
 
Tides and Currents Weather Stations Pressure Air Temp Water Temp Dewpoint Dewpoint Depression Visibility Wind Speed Wind Dir Waves Ship Positions

Exe Otter

Last reported at 2017-Sep-15 15:33 UTC. Time now 2017-Sep-20 00:22 UTC.
Position N 32°59' E 034°32'.

Length 82 m; draft 5.4 m.

Type: Cargo ship. MMSI: 376070000.

Date/timePositionNaut miles runAvg speedWind from/ knotsBaromVisibWave heightAir tempDewpointWater temp
2017-Sep-15 15:33N 32°59' E 034°32'1 6.0
2017-Sep-15 15:28N 32°59' E 034°33'25 5.9
2017-Sep-15 11:12N 32°51' E 035°01'2 0.0
2017-Sep-13 14:27N 32°52' E 034°59'3 5.7
2017-Sep-13 14:00N 32°52' E 034°56'3 5.9
2017-Sep-13 13:30N 32°53' E 034°52'3 6.0
2017-Sep-13 12:59N 32°54' E 034°49'3 6.1
2017-Sep-13 12:30N 32°55' E 034°46'3 6.2
2017-Sep-13 12:00N 32°56' E 034°42'3 6.2
2017-Sep-13 11:30N 32°57' E 034°39'4 6.1
2017-Sep-13 10:49N 32°58' E 034°34'2 6.2
2017-Sep-13 10:29N 32°59' E 034°31'3 5.8
2017-Sep-13 10:00N 33°02' E 034°30'3 5.9
2017-Sep-13 09:30N 33°04' E 034°29'3 5.9
2017-Sep-13 09:00N 33°07' E 034°28'3 6.0
2017-Sep-13 08:30N 33°10' E 034°26'8 6.0
2017-Sep-13 07:10N 33°18' E 034°23'1 5.4
2017-Sep-13 07:00N 33°18' E 034°23'3 5.3
2017-Sep-13 06:30N 33°21' E 034°22'3 5.5
2017-Sep-13 06:00N 33°23' E 034°21'3 5.6
2017-Sep-13 05:30N 33°26' E 034°19'3 5.7
2017-Sep-13 05:00N 33°29' E 034°18'4 5.7
2017-Sep-13 04:17N 33°33' E 034°17'7 5.8
2017-Sep-13 03:05N 33°39' E 034°14'1 6.1
2017-Sep-13 03:00N 33°40' E 034°13'4 6.1
2017-Sep-13 02:25N 33°43' E 034°12'13 5.9
2017-Sep-13 00:09N 33°55' E 034°06'1 5.8
2017-Sep-13 00:00N 33°56' E 034°06'15 6.0
2017-Sep-12 21:30N 34°10' E 034°00'7 6.0
2017-Sep-12 20:24N 34°16' E 033°57'8 6.2
2017-Sep-12 19:07N 34°24' E 033°54'2 6.2
2017-Sep-12 18:47N 34°26' E 033°53'17 6.1
2017-Sep-12 16:01N 34°42' E 033°46'0 5.7
2017-Sep-12 16:00N 34°42' E 033°46'15 6.0
2017-Sep-12 13:35N 34°55' E 033°39'0 3.6
2017-Sep-12 13:27N 34°56' E 033°39'0 0.7
2017-Sep-12 13:00N 34°56' E 033°39'0 0.0
2017-Sep-12 12:27N 34°56' E 033°39'0 0.0
2017-Sep-12 11:58N 34°56' E 033°39'0 0.0
2017-Sep-12 11:26N 34°56' E 033°39'0 0.0
2017-Sep-12 10:59N 34°56' E 033°39'0 0.0
2017-Sep-12 10:29N 34°56' E 033°39'0 0.0
2017-Sep-12 09:56N 34°56' E 033°39'0 0.0
2017-Sep-12 09:28N 34°56' E 033°39'0 0.0
2017-Sep-12 08:58N 34°56' E 033°39'0 0.0
2017-Sep-12 08:28N 34°56' E 033°39'0 0.0
2017-Sep-12 07:58N 34°56' E 033°39'0 0.0
2017-Sep-12 07:28N 34°56' E 033°39'0 0.0
2017-Sep-12 06:58N 34°56' E 033°39'0 0.0
2017-Sep-11 16:37N 34°56' E 033°39'0 0.0
2017-Sep-11 16:19N 34°56' E 033°39'0 0.0
2017-Sep-11 15:55N 34°56' E 033°39'0 0.0
2017-Sep-11 15:28N 34°56' E 033°39'0 0.0
2017-Sep-11 15:01N 34°56' E 033°39'0 0.0
2017-Sep-11 14:31N 34°56' E 033°39'0 0.0
2017-Sep-11 14:00N 34°56' E 033°39'0 0.0
2017-Sep-11 13:12N 34°56' E 033°39'0 0.0
2017-Sep-11 13:00N 34°56' E 033°39'0 0.0
2017-Sep-11 11:06N 34°56' E 033°39'0 0.0
2017-Sep-11 10:57N 34°56' E 033°39'0 0.0
2017-Sep-11 10:30N 34°56' E 033°39'0 0.0
2017-Sep-11 10:00N 34°56' E 033°39'1 2.1
2017-Sep-11 09:30N 34°55' E 033°40'2 4.7
2017-Sep-11 09:00N 34°53' E 033°41'4 7.1
2017-Sep-11 08:30N 34°50' E 033°42'6 6.7
2017-Sep-11 07:39N 34°44' E 033°45'1 6.8
2017-Sep-11 07:30N 34°43' E 033°45'14 7.0
2017-Sep-11 05:31N 34°30' E 033°51'0 7.2
2017-Sep-11 05:30N 34°30' E 033°51'11 7.1
2017-Sep-11 04:00N 34°20' E 033°56'4 7.2
2017-Sep-11 03:30N 34°17' E 033°57'3 6.9
2017-Sep-11 03:00N 34°14' E 033°59'33 7.1
2017-Sep-10 22:23N 33°42' E 034°12'3 7.1
2017-Sep-10 22:00N 33°40' E 034°13'5 7.1
2017-Sep-10 21:20N 33°35' E 034°15'2 6.6
2017-Sep-10 21:00N 33°33' E 034°16'3 6.7
2017-Sep-10 20:30N 33°30' E 034°17'3 6.8
2017-Sep-10 20:00N 33°27' E 034°19'3 6.9
2017-Sep-10 19:30N 33°24' E 034°20'3 7.0
2017-Sep-10 19:00N 33°21' E 034°22'3 6.9
2017-Sep-10 18:30N 33°17' E 034°23'3 7.0
2017-Sep-10 18:00N 33°14' E 034°25'3 7.0
2017-Sep-10 17:30N 33°11' E 034°26'4 7.1
2017-Sep-10 17:00N 33°07' E 034°28'3 6.9
2017-Sep-10 16:30N 33°04' E 034°29'3 6.8
2017-Sep-10 16:00N 33°01' E 034°30'3 6.0
2017-Sep-10 15:30N 32°59' E 034°33'4 6.7
2017-Sep-10 14:55N 32°57' E 034°37'9 6.9
2017-Sep-10 13:38N 32°55' E 034°47'12 0.4
2017-Sep-09 08:26N 32°50' E 035°01'  
Track history (hours):
 
Tides and Currents Weather Stations Pressure Air Temp Water Temp Dewpoint Dewpoint Depression Visibility Wind Speed Wind Dir Waves Ship Positions

Exe Otter

Last reported at 2017-Sep-15 15:33 UTC. Time now 2017-Sep-20 00:22 UTC.
Position N 32°59' E 034°32'.

Length 82 m; draft 5.4 m.

Type: Cargo ship. MMSI: 376070000.

Date/timePositionNaut miles runAvg speedWind from/ knotsBaromVisibWave heightAir tempDewpointWater temp
2017-Sep-15 15:33N 32°59' E 034°32'1 6.0
2017-Sep-15 15:28N 32°59' E 034°33'25 5.9
2017-Sep-15 11:12N 32°51' E 035°01'2 0.0
2017-Sep-13 14:27N 32°52' E 034°59'3 5.7
2017-Sep-13 14:00N 32°52' E 034°56'3 5.9
2017-Sep-13 13:30N 32°53' E 034°52'3 6.0
2017-Sep-13 12:59N 32°54' E 034°49'3 6.1
2017-Sep-13 12:30N 32°55' E 034°46'3 6.2
2017-Sep-13 12:00N 32°56' E 034°42'3 6.2
2017-Sep-13 11:30N 32°57' E 034°39'4 6.1
2017-Sep-13 10:49N 32°58' E 034°34'2 6.2
2017-Sep-13 10:29N 32°59' E 034°31'3 5.8
2017-Sep-13 10:00N 33°02' E 034°30'3 5.9
2017-Sep-13 09:30N 33°04' E 034°29'3 5.9
2017-Sep-13 09:00N 33°07' E 034°28'3 6.0
2017-Sep-13 08:30N 33°10' E 034°26'8 6.0
2017-Sep-13 07:10N 33°18' E 034°23'1 5.4
2017-Sep-13 07:00N 33°18' E 034°23'3 5.3
2017-Sep-13 06:30N 33°21' E 034°22'3 5.5
2017-Sep-13 06:00N 33°23' E 034°21'3 5.6
2017-Sep-13 05:30N 33°26' E 034°19'3 5.7
2017-Sep-13 05:00N 33°29' E 034°18'4 5.7
2017-Sep-13 04:17N 33°33' E 034°17'7 5.8
2017-Sep-13 03:05N 33°39' E 034°14'1 6.1
2017-Sep-13 03:00N 33°40' E 034°13'4 6.1
2017-Sep-13 02:25N 33°43' E 034°12'13 5.9
2017-Sep-13 00:09N 33°55' E 034°06'1 5.8
2017-Sep-13 00:00N 33°56' E 034°06'15 6.0
2017-Sep-12 21:30N 34°10' E 034°00'7 6.0
2017-Sep-12 20:24N 34°16' E 033°57'8 6.2
2017-Sep-12 19:07N 34°24' E 033°54'2 6.2
2017-Sep-12 18:47N 34°26' E 033°53'17 6.1
2017-Sep-12 16:01N 34°42' E 033°46'0 5.7
2017-Sep-12 16:00N 34°42' E 033°46'15 6.0
2017-Sep-12 13:35N 34°55' E 033°39'0 3.6
2017-Sep-12 13:27N 34°56' E 033°39'0 0.7
2017-Sep-12 13:00N 34°56' E 033°39'0 0.0
2017-Sep-12 12:27N 34°56' E 033°39'0 0.0
2017-Sep-12 11:58N 34°56' E 033°39'0 0.0
2017-Sep-12 11:26N 34°56' E 033°39'0 0.0
2017-Sep-12 10:59N 34°56' E 033°39'0 0.0
2017-Sep-12 10:29N 34°56' E 033°39'0 0.0
2017-Sep-12 09:56N 34°56' E 033°39'0 0.0
2017-Sep-12 09:28N 34°56' E 033°39'0 0.0
2017-Sep-12 08:58N 34°56' E 033°39'0 0.0
2017-Sep-12 08:28N 34°56' E 033°39'0 0.0
2017-Sep-12 07:58N 34°56' E 033°39'0 0.0
2017-Sep-12 07:28N 34°56' E 033°39'0 0.0
2017-Sep-12 06:58N 34°56' E 033°39'0 0.0
2017-Sep-11 16:37N 34°56' E 033°39'0 0.0
2017-Sep-11 16:19N 34°56' E 033°39'0 0.0
2017-Sep-11 15:55N 34°56' E 033°39'0 0.0
2017-Sep-11 15:28N 34°56' E 033°39'0 0.0
2017-Sep-11 15:01N 34°56' E 033°39'0 0.0
2017-Sep-11 14:31N 34°56' E 033°39'0 0.0
2017-Sep-11 14:00N 34°56' E 033°39'0 0.0
2017-Sep-11 13:12N 34°56' E 033°39'0 0.0
2017-Sep-11 13:00N 34°56' E 033°39'0 0.0
2017-Sep-11 11:06N 34°56' E 033°39'0 0.0
2017-Sep-11 10:57N 34°56' E 033°39'0 0.0
2017-Sep-11 10:30N 34°56' E 033°39'0 0.0
2017-Sep-11 10:00N 34°56' E 033°39'1 2.1
2017-Sep-11 09:30N 34°55' E 033°40'2 4.7
2017-Sep-11 09:00N 34°53' E 033°41'4 7.1
2017-Sep-11 08:30N 34°50' E 033°42'6 6.7
2017-Sep-11 07:39N 34°44' E 033°45'1 6.8
2017-Sep-11 07:30N 34°43' E 033°45'14 7.0
2017-Sep-11 05:31N 34°30' E 033°51'0 7.2
2017-Sep-11 05:30N 34°30' E 033°51'11 7.1
2017-Sep-11 04:00N 34°20' E 033°56'4 7.2
2017-Sep-11 03:30N 34°17' E 033°57'3 6.9
2017-Sep-11 03:00N 34°14' E 033°59'33 7.1
2017-Sep-10 22:23N 33°42' E 034°12'3 7.1
2017-Sep-10 22:00N 33°40' E 034°13'5 7.1
2017-Sep-10 21:20N 33°35' E 034°15'2 6.6
2017-Sep-10 21:00N 33°33' E 034°16'3 6.7
2017-Sep-10 20:30N 33°30' E 034°17'3 6.8
2017-Sep-10 20:00N 33°27' E 034°19'3 6.9
2017-Sep-10 19:30N 33°24' E 034°20'3 7.0
2017-Sep-10 19:00N 33°21' E 034°22'3 6.9
2017-Sep-10 18:30N 33°17' E 034°23'3 7.0
2017-Sep-10 18:00N 33°14' E 034°25'3 7.0
2017-Sep-10 17:30N 33°11' E 034°26'4 7.1
2017-Sep-10 17:00N 33°07' E 034°28'3 6.9
2017-Sep-10 16:30N 33°04' E 034°29'3 6.8
2017-Sep-10 16:00N 33°01' E 034°30'3 6.0
2017-Sep-10 15:30N 32°59' E 034°33'4 6.7
2017-Sep-10 14:55N 32°57' E 034°37'9 6.9
2017-Sep-10 13:38N 32°55' E 034°47'12 0.4
2017-Sep-09 08:26N 32°50' E 035°01'  

Dump ship's entire track history